createdAt,value
2023-03-05T00:00:11.236Z,1.74
2023-03-05T00:03:14.761Z,1.69
2023-03-05T00:06:21.927Z,1.66
2023-03-05T00:09:27.577Z,1.67
2023-03-05T00:12:32.130Z,1.65
2023-03-05T00:15:41.697Z,1.63
2023-03-05T00:18:45.852Z,1.58
2023-03-05T00:21:57.578Z,1.58
2023-03-05T00:25:02.195Z,1.56
2023-03-05T00:28:11.632Z,1.49
2023-03-05T00:31:14.300Z,1.48
2023-03-05T00:34:18.441Z,1.45
2023-03-05T00:37:24.395Z,1.55
2023-03-05T00:40:27.553Z,1.53
2023-03-05T00:43:31.711Z,1.50
2023-03-05T00:46:38.363Z,1.49
2023-03-05T00:49:46.520Z,1.47
2023-03-05T00:52:59.345Z,1.49
2023-03-05T00:56:08.359Z,1.48
2023-03-05T00:59:12.584Z,1.46
2023-03-05T01:02:18.296Z,1.51
2023-03-05T01:05:24.069Z,1.52
2023-03-05T01:08:29.574Z,1.55
2023-03-05T01:11:34.361Z,1.59
2023-03-05T01:14:45.745Z,1.59
2023-03-05T01:17:50.382Z,1.65
2023-03-05T01:20:54.898Z,1.71
2023-03-05T01:24:00.129Z,1.79
2023-03-05T01:27:04.100Z,1.82
2023-03-05T01:30:15.221Z,1.90
2023-03-05T01:33:26.403Z,1.92
2023-03-05T01:36:34.329Z,1.94
2023-03-05T01:39:38.635Z,1.96
2023-03-05T01:42:47.161Z,1.94
2023-03-05T01:46:09.176Z,1.93
2023-03-05T01:49:16.216Z,1.88
2023-03-05T01:52:22.857Z,1.88
2023-03-05T01:55:29.951Z,1.83
2023-03-05T01:58:38.153Z,1.82
2023-03-05T02:01:48.242Z,1.82
2023-03-05T02:04:57.043Z,1.81
2023-03-05T02:08:00.951Z,1.84
2023-03-05T02:11:05.032Z,1.84
2023-03-05T02:14:10.948Z,1.84
2023-03-05T02:17:19.365Z,1.82
2023-03-05T02:20:24.505Z,1.81
2023-03-05T02:23:47.430Z,1.83
2023-03-05T02:26:55.681Z,1.88
2023-03-05T02:30:04.610Z,1.85
2023-03-05T02:33:11.583Z,1.86
2023-03-05T02:36:16.558Z,1.89
2023-03-05T02:39:22.676Z,1.93
2023-03-05T02:42:26.394Z,1.89
2023-03-05T02:45:35.221Z,1.89
2023-03-05T02:48:55.211Z,1.96
2023-03-05T02:52:01.297Z,1.93
2023-03-05T02:55:16.246Z,1.87
2023-03-05T02:58:29.784Z,1.94
2023-03-05T03:01:40.553Z,1.98
2023-03-05T03:04:48.264Z,1.94
2023-03-05T03:07:55.723Z,1.94
2023-03-05T03:11:05.316Z,1.97
2023-03-05T03:14:15.675Z,1.91
2023-03-05T03:17:23.476Z,1.93
2023-03-05T03:20:29.015Z,1.97
2023-03-05T03:23:36.005Z,1.96
2023-03-05T03:26:40.132Z,1.95
2023-03-05T03:29:45.831Z,1.94
2023-03-05T03:32:48.500Z,1.93
2023-03-05T03:36:05.076Z,1.97
2023-03-05T03:39:17.911Z,1.93
2023-03-05T03:42:23.448Z,1.91
2023-03-05T03:45:28.794Z,1.89
2023-03-05T03:48:32.770Z,1.96
2023-03-05T03:51:37.704Z,2.00
2023-03-05T03:54:44.125Z,2.02
2023-03-05T03:57:49.161Z,2.05
2023-03-05T04:01:00.664Z,2.01
2023-03-05T04:04:07.020Z,2.00
2023-03-05T04:07:12.825Z,2.06
2023-03-05T04:10:21.704Z,2.10
2023-03-05T04:13:32.683Z,2.14
2023-03-05T04:16:39.873Z,2.16
2023-03-05T04:19:47.071Z,2.11
2023-03-05T04:22:54.977Z,2.11
2023-03-05T04:26:03.305Z,2.05
2023-03-05T04:29:08.170Z,2.11
2023-03-05T04:32:16.850Z,2.08
2023-03-05T04:35:19.989Z,2.10
2023-03-05T04:38:25.283Z,2.11
2023-03-05T04:41:31.389Z,2.23
2023-03-05T04:44:40.270Z,2.28
2023-03-05T04:47:46.154Z,2.31
2023-03-05T04:50:52.094Z,2.31
2023-03-05T04:53:59.892Z,2.34
2023-03-05T04:57:07.286Z,2.31
2023-03-05T05:00:17.258Z,2.35
2023-03-05T05:03:24.861Z,2.44
2023-03-05T05:06:29.719Z,2.46
2023-03-05T05:09:37.799Z,2.50
2023-03-05T05:12:44.182Z,2.43
2023-03-05T05:15:46.740Z,2.46
2023-03-05T05:18:52.415Z,2.48
2023-03-05T05:21:56.306Z,2.54
2023-03-05T05:25:01.566Z,2.61
2023-03-05T05:28:06.808Z,2.56
2023-03-05T05:31:15.272Z,2.51
2023-03-05T05:34:19.032Z,2.50
2023-03-05T05:37:28.367Z,2.52
2023-03-05T05:40:35.154Z,2.58
2023-03-05T05:43:38.964Z,2.67
2023-03-05T05:46:44.360Z,2.72
2023-03-05T05:49:48.836Z,2.68
2023-03-05T05:52:54.949Z,2.60
2023-03-05T05:55:58.232Z,2.69
2023-03-05T05:59:03.443Z,2.82
2023-03-05T06:02:12.437Z,2.99
2023-03-05T06:05:18.013Z,2.93
2023-03-05T06:08:23.471Z,2.97
2023-03-05T06:11:28.211Z,2.99
2023-03-05T06:14:44.000Z,3.00
2023-03-05T06:17:51.710Z,2.95
2023-03-05T06:20:58.288Z,2.94
2023-03-05T06:24:03.105Z,3.03
2023-03-05T06:27:15.730Z,3.12
2023-03-05T06:30:19.962Z,3.13
2023-03-05T06:33:31.213Z,3.27
2023-03-05T06:36:35.040Z,3.44
2023-03-05T06:39:42.744Z,3.35
2023-03-05T06:42:50.036Z,3.39
2023-03-05T06:46:07.305Z,3.53
2023-03-05T06:49:13.934Z,3.59
2023-03-05T06:52:17.441Z,3.69
2023-03-05T06:55:23.107Z,3.78
2023-03-05T06:58:25.582Z,3.97
2023-03-05T07:01:33.172Z,4.04
2023-03-05T07:04:41.094Z,4.03
2023-03-05T07:07:50.320Z,4.10
2023-03-05T07:10:59.146Z,3.97
2023-03-05T07:14:06.871Z,3.84
2023-03-05T07:17:12.355Z,3.91
2023-03-05T07:20:15.798Z,3.83
2023-03-05T07:23:21.369Z,3.86
2023-03-05T07:26:28.462Z,3.89
2023-03-05T07:29:34.528Z,4.00
2023-03-05T07:32:39.198Z,4.04
2023-03-05T07:35:43.064Z,4.06
2023-03-05T07:38:52.294Z,4.15
2023-03-05T07:41:55.814Z,4.23
2023-03-05T07:44:59.386Z,4.31
2023-03-05T07:48:02.096Z,4.29
2023-03-05T07:51:10.191Z,4.15
2023-03-05T07:54:13.859Z,4.21
2023-03-05T07:57:18.420Z,4.07
2023-03-05T08:00:24.686Z,4.25
2023-03-05T08:03:28.124Z,4.24
2023-03-05T08:06:32.830Z,4.32
2023-03-05T08:09:40.636Z,4.37
2023-03-05T08:12:46.192Z,4.15
2023-03-05T08:15:52.058Z,4.02
2023-03-05T08:18:59.304Z,4.08
2023-03-05T08:22:04.365Z,4.20
2023-03-05T08:25:08.899Z,4.53
2023-03-05T08:28:13.991Z,4.53
2023-03-05T08:31:25.999Z,4.73
2023-03-05T08:34:30.461Z,5.03
2023-03-05T08:37:36.220Z,5.24
2023-03-05T08:40:43.906Z,5.39
2023-03-05T08:43:47.169Z,5.44
2023-03-05T08:46:54.162Z,5.63
2023-03-05T08:50:13.611Z,5.32
2023-03-05T08:53:21.290Z,5.26
2023-03-05T08:56:36.151Z,5.18
2023-03-05T08:59:42.639Z,5.01
2023-03-05T09:02:57.656Z,5.11
2023-03-05T09:06:03.251Z,5.12
2023-03-05T09:12:31.551Z,5.50
2023-03-05T09:15:35.445Z,5.80
2023-03-05T09:18:42.755Z,6.06
2023-03-05T09:21:55.374Z,6.22
2023-03-05T09:25:06.575Z,6.39
2023-03-05T09:28:13.034Z,6.59
2023-03-05T09:31:18.587Z,6.15
2023-03-05T09:34:25.288Z,5.97
2023-03-05T09:37:35.145Z,5.92
2023-03-05T09:41:11.281Z,6.03
2023-03-05T09:44:43.062Z,5.99
2023-03-05T09:47:58.494Z,5.82
2023-03-05T09:51:07.046Z,6.09
2023-03-05T09:54:22.435Z,6.34
2023-03-05T09:57:35.358Z,6.65
2023-03-05T10:00:48.816Z,6.86
2023-03-05T10:04:10.788Z,7.00
2023-03-05T10:07:22.768Z,7.12
2023-03-05T10:10:44.667Z,6.66
2023-03-05T10:13:55.399Z,6.86
2023-03-05T10:17:14.309Z,6.31
2023-03-05T10:20:26.700Z,6.10
2023-03-05T10:23:35.548Z,5.95
2023-03-05T10:26:44.388Z,5.94
2023-03-05T10:29:57.601Z,5.73
2023-03-05T10:33:07.969Z,5.80
2023-03-05T10:36:25.064Z,5.76
2023-03-05T10:39:35.664Z,5.70
2023-03-05T10:42:42.142Z,5.71
2023-03-05T10:45:47.594Z,5.79
2023-03-05T10:48:58.763Z,6.05
2023-03-05T10:52:06.898Z,6.06
2023-03-05T10:55:24.116Z,6.24
2023-03-05T10:58:29.670Z,6.37
2023-03-05T11:04:53.864Z,5.89
2023-03-05T11:08:00.879Z,6.28
2023-03-05T11:11:06.241Z,6.05
2023-03-05T11:14:37.874Z,6.43
2023-03-05T11:17:52.759Z,6.75
2023-03-05T11:21:29.299Z,6.75
2023-03-05T11:24:37.002Z,6.64
2023-03-05T11:27:54.797Z,6.96
2023-03-05T11:31:08.795Z,6.87
2023-03-05T11:34:19.301Z,6.97
2023-03-05T11:37:34.696Z,7.22
2023-03-05T11:40:49.609Z,7.08
2023-03-05T11:44:00.813Z,6.91
2023-03-05T11:47:18.017Z,6.71
2023-03-05T11:50:32.474Z,6.89
2023-03-05T11:53:38.744Z,6.59
2023-03-05T11:56:43.468Z,6.96
2023-03-05T11:59:46.677Z,7.47
2023-03-05T12:02:54.804Z,7.44
2023-03-05T12:06:03.318Z,7.64
2023-03-05T12:09:32.887Z,7.27
2023-03-05T12:13:04.190Z,7.19
2023-03-05T12:16:13.852Z,6.65
2023-03-05T12:19:18.883Z,6.89
2023-03-05T12:22:29.846Z,7.02
2023-03-05T12:25:47.183Z,6.92
2023-03-05T12:28:54.473Z,7.25
2023-03-05T12:32:00.637Z,7.48
2023-03-05T12:35:19.329Z,7.45
2023-03-05T12:38:34.415Z,7.59
2023-03-05T12:41:41.813Z,7.41
2023-03-05T12:44:51.952Z,6.85
2023-03-05T12:47:58.599Z,6.48
2023-03-05T12:51:01.693Z,6.79
2023-03-05T12:54:26.696Z,7.18
2023-03-05T12:57:34.906Z,7.12
2023-03-05T13:00:46.823Z,7.58
2023-03-05T13:04:16.627Z,7.62
2023-03-05T13:07:21.578Z,7.06
2023-03-05T13:10:30.860Z,6.65
2023-03-05T13:13:41.785Z,6.48
2023-03-05T13:16:46.343Z,6.46
2023-03-05T13:19:52.680Z,6.62
2023-03-05T13:23:15.935Z,6.89
2023-03-05T13:26:20.485Z,6.77
2023-03-05T13:29:30.003Z,6.80
2023-03-05T13:32:36.657Z,6.84
2023-03-05T13:35:45.164Z,6.62
2023-03-05T13:38:53.932Z,6.43
2023-03-05T13:42:00.927Z,6.38
2023-03-05T13:45:15.993Z,6.46
2023-03-05T13:48:21.540Z,6.68
2023-03-05T13:51:28.342Z,6.63
2023-03-05T13:54:32.649Z,6.63
2023-03-05T13:57:47.749Z,6.64
2023-03-05T14:01:06.632Z,6.71
2023-03-05T14:04:21.421Z,6.39
2023-03-05T14:07:39.437Z,6.38
2023-03-05T14:10:43.515Z,6.01
2023-03-05T14:13:51.830Z,5.72
2023-03-05T14:17:01.766Z,5.58
2023-03-05T14:20:17.919Z,5.66
2023-03-05T14:23:30.821Z,5.67
2023-03-05T14:26:37.621Z,5.66
2023-03-05T14:29:52.565Z,5.76
2023-03-05T14:33:00.793Z,5.62
2023-03-05T14:36:10.128Z,5.60
2023-03-05T14:39:33.925Z,5.45
2023-03-05T14:42:57.478Z,5.42
2023-03-05T14:46:01.500Z,5.25
2023-03-05T14:49:05.598Z,5.33
2023-03-05T14:52:17.622Z,5.30
2023-03-05T14:55:29.299Z,5.29
2023-03-05T14:58:38.346Z,5.11
2023-03-05T15:01:41.556Z,5.22
2023-03-05T15:04:46.789Z,5.42
2023-03-05T15:07:50.606Z,5.42
2023-03-05T15:10:54.302Z,5.35
2023-03-05T15:13:59.437Z,5.38
2023-03-05T15:17:10.986Z,5.47
2023-03-05T15:20:33.263Z,5.30
2023-03-05T15:23:40.660Z,5.19
2023-03-05T15:26:50.259Z,5.11
2023-03-05T15:29:54.696Z,4.96
2023-03-05T15:33:02.130Z,4.86
2023-03-05T15:36:05.317Z,4.94
2023-03-05T15:39:08.101Z,4.93
2023-03-05T15:42:15.296Z,4.98
2023-03-05T15:45:18.402Z,5.02
2023-03-05T15:48:21.493Z,4.90
2023-03-05T15:51:26.100Z,4.94
2023-03-05T15:54:29.104Z,4.95
2023-03-05T15:57:35.057Z,4.93
2023-03-05T16:00:49.152Z,4.82
2023-03-05T16:03:52.429Z,4.73
2023-03-05T16:06:59.179Z,4.59
2023-03-05T16:10:04.967Z,4.44
2023-03-05T16:13:12.435Z,4.32
2023-03-05T16:16:15.800Z,4.19
2023-03-05T16:19:20.447Z,4.12
2023-03-05T16:22:24.143Z,4.12
2023-03-05T16:25:27.284Z,4.11
2023-03-05T16:28:30.811Z,4.03
2023-03-05T16:31:35.774Z,3.96
2023-03-05T16:34:40.709Z,3.90
2023-03-05T16:37:52.085Z,3.87
2023-03-05T16:41:07.914Z,3.89
2023-03-05T16:44:13.434Z,3.78
2023-03-05T16:47:18.784Z,3.81
2023-03-05T16:50:21.784Z,3.78
2023-03-05T16:53:25.152Z,3.73
2023-03-05T16:56:28.747Z,3.64
2023-03-05T16:59:35.206Z,3.61
2023-03-05T17:02:38.540Z,3.58
2023-03-05T17:05:44.597Z,3.50
2023-03-05T17:08:49.956Z,3.50
2023-03-05T17:11:55.777Z,3.48
2023-03-05T17:15:02.168Z,3.45
2023-03-05T17:18:07.621Z,3.44
2023-03-05T17:21:11.833Z,3.42
2023-03-05T17:24:16.648Z,3.32
2023-03-05T17:27:23.154Z,3.35
2023-03-05T17:30:26.472Z,3.35
2023-03-05T17:33:30.675Z,3.26
2023-03-05T17:36:36.703Z,3.16
2023-03-05T17:39:42.966Z,3.12
2023-03-05T17:42:47.290Z,3.10
2023-03-05T17:45:51.115Z,3.03
2023-03-05T17:48:55.128Z,2.98
2023-03-05T17:51:58.514Z,2.95
2023-03-05T17:55:02.636Z,2.99
2023-03-05T17:58:06.039Z,3.13
2023-03-05T18:01:12.941Z,3.15
2023-03-05T18:04:20.592Z,3.18
2023-03-05T18:07:24.817Z,3.20
2023-03-05T18:10:30.968Z,3.14
2023-03-05T18:13:33.653Z,3.16
2023-03-05T18:16:37.977Z,3.14
2023-03-05T18:19:41.013Z,3.20
2023-03-05T18:22:47.781Z,3.18
2023-03-05T18:25:51.388Z,3.21
2023-03-05T18:28:54.020Z,3.18
2023-03-05T18:31:57.830Z,3.16
2023-03-05T18:35:00.948Z,3.19
2023-03-05T18:38:06.123Z,3.15
2023-03-05T18:41:09.529Z,3.20
2023-03-05T18:44:14.873Z,3.17
2023-03-05T18:47:17.692Z,3.22
2023-03-05T18:50:21.368Z,3.16
2023-03-05T18:53:25.688Z,3.13
2023-03-05T18:56:28.490Z,3.07
2023-03-05T18:59:32.993Z,3.09
2023-03-05T19:02:37.026Z,3.04
2023-03-05T19:05:43.187Z,3.06
2023-03-05T19:08:47.303Z,3.03
2023-03-05T19:11:51.730Z,3.12
2023-03-05T19:14:59.943Z,3.06
2023-03-05T19:18:05.615Z,3.06
2023-03-05T19:21:10.839Z,3.01
2023-03-05T19:24:15.573Z,2.99
2023-03-05T19:27:19.984Z,3.07
2023-03-05T19:30:24.101Z,3.09
2023-03-05T19:33:26.488Z,3.05
2023-03-05T19:36:30.801Z,3.05
2023-03-05T19:39:35.114Z,3.04
2023-03-05T19:42:40.456Z,2.99
2023-03-05T19:45:44.072Z,3.03
2023-03-05T19:48:48.819Z,3.01
2023-03-05T19:51:52.187Z,3.03
2023-03-05T19:54:55.298Z,2.95
2023-03-05T19:57:58.798Z,2.91
2023-03-05T20:01:16.347Z,2.87
2023-03-05T20:04:22.820Z,2.85
2023-03-05T20:07:27.642Z,2.84
2023-03-05T20:10:31.141Z,2.85
2023-03-05T20:13:33.996Z,2.79
2023-03-05T20:16:40.879Z,2.84
2023-03-05T20:19:44.009Z,2.79
2023-03-05T20:22:48.600Z,2.80
2023-03-05T20:25:52.118Z,2.83
2023-03-05T20:28:55.238Z,2.84
2023-03-05T20:31:59.108Z,2.89
2023-03-05T20:35:02.793Z,2.86
2023-03-05T20:38:21.684Z,2.91
2023-03-05T20:41:27.435Z,2.99
2023-03-05T20:44:31.470Z,2.95
2023-03-05T20:47:41.627Z,2.94
2023-03-05T20:50:47.518Z,2.81
2023-03-05T20:54:01.154Z,2.78
2023-03-05T20:57:04.383Z,2.77
2023-03-05T21:00:08.468Z,2.77
2023-03-05T21:03:11.741Z,2.84
2023-03-05T21:06:14.869Z,2.84
2023-03-05T21:09:18.180Z,2.82
2023-03-05T21:12:21.974Z,2.87
2023-03-05T21:15:26.617Z,2.84
2023-03-05T21:18:29.998Z,2.78
2023-03-05T21:21:35.037Z,2.67
2023-03-05T21:25:21.180Z,2.70
2023-03-05T21:28:27.118Z,2.69
2023-03-05T21:31:33.908Z,2.64
2023-03-05T21:34:37.384Z,2.62
2023-03-05T21:37:44.983Z,2.67
2023-03-05T21:40:51.208Z,2.70
2023-03-05T21:43:54.241Z,2.76
2023-03-05T21:46:57.868Z,2.77
2023-03-05T21:50:02.367Z,2.83
2023-03-05T21:53:08.735Z,2.78
2023-03-05T21:56:26.188Z,2.81
2023-03-05T21:59:31.618Z,2.82
2023-03-05T22:02:35.413Z,2.89
2023-03-05T22:05:38.399Z,2.90
2023-03-05T22:08:40.545Z,2.97
2023-03-05T22:11:44.192Z,3.00
2023-03-05T22:14:47.011Z,3.00
2023-03-05T22:17:51.180Z,2.95
2023-03-05T22:20:56.051Z,2.97
2023-03-05T22:24:00.042Z,2.95
2023-03-05T22:27:04.038Z,2.95
2023-03-05T22:30:08.798Z,2.94
2023-03-05T22:33:14.000Z,2.89
2023-03-05T22:36:17.541Z,2.89
2023-03-05T22:39:21.730Z,2.78
2023-03-05T22:42:30.749Z,2.79
2023-03-05T22:45:37.835Z,2.77
2023-03-05T22:48:40.413Z,2.61
2023-03-05T22:51:43.817Z,2.52
2023-03-05T22:54:50.603Z,2.49
2023-03-05T22:57:55.887Z,2.46
2023-03-05T23:00:59.390Z,2.59
2023-03-05T23:04:41.744Z,2.47
2023-03-05T23:07:45.540Z,2.57
2023-03-05T23:10:50.605Z,2.64
2023-03-05T23:13:56.045Z,2.69
2023-03-05T23:16:59.255Z,2.70
2023-03-05T23:20:02.533Z,2.66
2023-03-05T23:23:07.066Z,2.64
2023-03-05T23:26:12.601Z,2.67
2023-03-05T23:30:00.348Z,2.67
2023-03-05T23:33:08.561Z,2.70
2023-03-05T23:36:12.822Z,2.72
2023-03-05T23:39:17.396Z,2.77
2023-03-05T23:42:22.222Z,2.72
2023-03-05T23:45:26.752Z,2.77
2023-03-05T23:48:31.282Z,2.75
2023-03-05T23:51:36.003Z,2.78
2023-03-05T23:54:39.713Z,2.72
2023-03-05T23:57:42.332Z,2.75
